Time;durP1;ratioP1;P1;durP2;ratioP2;P2;SDS_P1;SDS_P2;PMS_P1;PMS_P2;Temp;Humidity;BMP_temperature;BMP_pressure;BME280_temperature;BME280_humidity;BME280_pressure;Samples;Min_cycle;Max_cycle;Signal;HPM_P1;HPM_P2
2023/04/29 00:01:57;;;;;;;83.68;51.17;;;;;;;8.31;100.00;101328.81;5114800;28;20028;-50
2023/04/29 00:04:24;;;;;;;77.72;49.42;;;;;;;8.30;100.00;101331.31;5115338;28;20383;-49
2023/04/29 00:06:50;;;;;;;79.97;48.88;;;;;;;8.28;100.00;101335.53;5115358;28;20078;-50
2023/04/29 00:09:15;;;;;;;83.18;49.67;;;;;;;8.29;100.00;101342.41;5114208;28;20463;-48
2023/04/29 00:11:41;;;;;;;80.15;50.65;;;;;;;8.27;100.00;101339.78;5115245;28;20015;-50
2023/04/29 00:14:06;;;;;;;79.97;50.58;;;;;;;8.24;100.00;101339.63;5115103;28;20462;-51
2023/04/29 00:16:31;;;;;;;76.47;49.13;;;;;;;8.19;100.00;101347.13;5114245;28;20035;-50
2023/04/29 00:18:58;;;;;;;72.45;49.58;;;;;;;8.15;100.00;101347.78;5115231;28;20020;-51
2023/04/29 00:21:26;;;;;;;73.93;51.13;;;;;;;8.08;100.00;101343.16;5115021;28;20062;-50
2023/04/29 00:23:51;;;;;;;78.35;50.15;;;;;;;8.02;100.00;101354.00;5114268;28;20020;-50
2023/04/29 00:26:17;;;;;;;77.00;50.58;;;;;;;7.98;100.00;101346.06;5114756;28;20050;-52
2023/04/29 00:28:42;;;;;;;71.88;49.45;;;;;;;7.95;100.00;101353.66;5114911;28;20067;-51
2023/04/29 00:31:07;;;;;;;79.60;52.22;;;;;;;7.93;100.00;101352.69;5114054;28;20064;-50
2023/04/29 00:33:32;;;;;;;77.82;50.92;;;;;;;7.91;100.00;101355.19;5114592;28;20064;-49
2023/04/29 00:35:58;;;;;;;78.10;50.88;;;;;;;7.91;100.00;101365.44;5114860;28;20102;-48
2023/04/29 00:38:23;;;;;;;69.47;47.55;;;;;;;7.88;100.00;101363.59;5113612;28;20022;-49
2023/04/29 00:40:49;;;;;;;65.40;46.28;;;;;;;7.84;100.00;101364.28;5114854;28;20023;-50
2023/04/29 00:43:14;;;;;;;60.78;45.03;;;;;;;7.82;100.00;101368.44;5114586;28;20040;-51
2023/04/29 00:45:39;;;;;;;62.58;43.95;;;;;;;7.80;100.00;101372.63;5113399;28;20039;-51
2023/04/29 00:48:05;;;;;;;61.83;43.72;;;;;;;7.76;100.00;101365.59;5114659;28;20028;-49
2023/04/29 00:50:31;;;;;;;57.28;42.10;;;;;;;7.78;100.00;101378.50;5113712;28;20030;-49
2023/04/29 00:52:56;;;;;;;57.28;42.63;;;;;;;7.76;100.00;101370.72;5114442;28;20119;-50
2023/04/29 00:55:22;;;;;;;57.10;42.42;;;;;;;7.72;100.00;101373.91;5114041;28;20028;-48
2023/04/29 00:57:51;;;;;;;58.40;43.00;;;;;;;7.71;100.00;101375.63;5113661;28;20030;-52
2023/04/29 01:00:17;;;;;;;55.03;42.15;;;;;;;7.68;100.00;101380.59;5114180;28;20023;-49
2023/04/29 01:02:44;;;;;;;58.92;43.53;;;;;;;7.66;100.00;101373.63;5114375;28;20468;-51
2023/04/29 01:05:10;;;;;;;65.30;46.58;;;;;;;7.66;100.00;101379.63;5113362;28;20051;-51
2023/04/29 01:07:41;;;;;;;61.53;44.22;;;;;;;7.65;100.00;101383.00;5113877;28;20035;-52
2023/04/29 01:10:21;;;;;;;62.55;44.47;;;;;;;7.65;100.00;101377.88;5114066;28;20031;-49
2023/04/29 01:13:06;;;;;;;65.45;47.05;;;;;;;7.64;100.00;101395.75;5113388;28;20027;-50
2023/04/29 01:15:59;;;;;;;66.32;46.67;;;;;;;7.63;100.00;101388.84;5114028;28;20479;-48
2023/04/29 01:18:35;;;;;;;64.60;46.90;;;;;;;7.63;100.00;101399.13;5113658;28;20035;-51
2023/04/29 01:21:01;;;;;;;64.35;46.28;;;;;;;7.61;100.00;101390.47;5113341;28;20011;-49
2023/04/29 01:23:27;;;;;;;72.72;50.40;;;;;;;7.62;100.00;101393.13;5113624;28;20387;-48
2023/04/29 01:25:53;;;;;;;67.97;47.38;;;;;;;7.62;100.00;101393.13;5113216;28;20027;-49
2023/04/29 01:28:24;;;;;;;70.93;48.88;;;;;;;7.64;100.00;101399.19;5113575;28;20020;-49
2023/04/29 01:31:05;;;;;;;69.05;48.83;;;;;;;7.63;100.00;101404.25;5113786;28;20020;-50
2023/04/29 01:33:49;;;;;;;70.78;49.40;;;;;;;7.64;100.00;101406.00;5112755;28;20023;-49
2023/04/29 01:36:31;;;;;;;68.90;48.53;;;;;;;7.62;100.00;101397.34;5113323;28;20035;-50
2023/04/29 01:39:15;;;;;;;72.47;50.95;;;;;;;7.65;100.00;101411.22;5113668;28;20108;-48
2023/04/29 01:41:41;;;;;;;77.28;51.42;;;;;;;7.61;100.00;101406.75;5112909;28;20062;-50
2023/04/29 01:44:10;;;;;;;70.38;51.80;;;;;;;7.63;100.00;101409.38;5113569;28;20024;-50
2023/04/29 01:46:37;;;;;;;77.03;53.17;;;;;;;7.62;100.00;101405.03;5113364;28;20028;-52
2023/04/29 01:49:02;;;;;;;80.50;53.88;;;;;;;7.64;100.00;101406.00;5112789;28;20020;-50
2023/04/29 01:51:28;;;;;;;76.68;50.55;;;;;;;7.63;100.00;101409.38;5113193;28;20114;-49
2023/04/29 01:53:53;;;;;;;75.03;51.95;;;;;;;7.62;100.00;101407.59;5112482;28;20466;-48
2023/04/29 01:56:19;;;;;;;77.93;52.97;;;;;;;7.61;100.00;101405.88;5113367;28;20378;-51
2023/04/29 01:58:44;;;;;;;81.28;52.47;;;;;;;7.63;100.00;101409.38;5113602;28;20077;-50
2023/04/29 02:01:10;;;;;;;80.43;51.63;;;;;;;7.63;100.00;101410.28;5112731;28;20377;-49
2023/04/29 02:03:36;;;;;;;79.97;51.58;;;;;;;7.64;100.00;101416.28;5113183;28;20024;-50
2023/04/29 02:06:01;;;;;;;83.70;53.17;;;;;;;7.64;100.00;101411.16;5113066;28;20044;-49
2023/04/29 02:08:26;;;;;;;92.05;55.30;;;;;;;7.66;100.00;101414.69;5112144;28;20097;-51
2023/04/29 02:10:56;;;;;;;91.07;55.78;;;;;;;7.65;100.00;101412.91;5113485;28;20026;-47
2023/04/29 02:13:21;;;;;;;83.38;55.60;;;;;;;7.65;100.00;101421.47;5113006;28;20027;-48
2023/04/29 02:15:47;;;;;;;97.70;58.58;;;;;;;7.66;100.00;101422.38;5112528;28;20029;-49
2023/04/29 02:18:12;;;;;;;92.95;58.83;;;;;;;7.67;100.00;101421.56;5113231;28;20020;-47
2023/04/29 02:20:38;;;;;;;99.07;60.45;;;;;;;7.66;100.00;101432.66;5112844;28;20028;-48
2023/04/29 02:23:03;;;;;;;97.38;59.70;;;;;;;7.66;100.00;101430.06;5112238;28;20040;-51
2023/04/29 02:25:28;;;;;;;103.65;61.05;;;;;;;7.64;100.00;101434.25;5112918;28;20011;-49
2023/04/29 02:27:54;;;;;;;103.68;62.90;;;;;;;7.61;100.00;101436.66;5113238;28;20019;-49
2023/04/29 02:30:19;;;;;;;106.88;63.72;;;;;;;7.58;100.00;101433.13;5112183;28;20374;-52
2023/04/29 02:32:44;;;;;;;107.50;63.47;;;;;;;7.56;100.00;101447.53;5112957;28;20435;-50
2023/04/29 02:35:09;;;;;;;103.72;63.67;;;;;;;7.54;100.00;101448.25;5113127;28;20020;-51
2023/04/29 02:37:35;;;;;;;114.07;64.90;;;;;;;7.52;100.00;101453.31;5111799;28;20035;-51
2023/04/29 02:40:01;;;;;;;119.18;67.63;;;;;;;7.50;100.00;101449.81;5112950;28;20084;-47
2023/04/29 02:42:26;;;;;;;117.47;66.68;;;;;;;7.51;100.00;101454.13;5112787;28;20102;-49
2023/04/29 02:44:51;;;;;;;122.07;67.30;;;;;;;7.48;100.00;101456.53;5112361;28;20024;-52
2023/04/29 02:47:16;;;;;;;134.77;71.78;;;;;;;7.45;100.00;101461.53;5112657;28;20023;-52
2023/04/29 02:49:42;;;;;;;129.25;70.80;;;;;;;7.49;100.00;101462.53;5116758;28;20062;-50
2023/04/29 02:52:07;;;;;;;133.82;69.63;;;;;;;7.45;100.00;101468.31;5115925;28;20022;-48
2023/04/29 02:54:33;;;;;;;134.52;70.78;;;;;;;7.50;100.00;101479.69;5116543;28;20032;-50
2023/04/29 02:56:58;;;;;;;132.35;72.20;;;;;;;7.45;100.00;101482.03;5116901;28;20024;-51
2023/04/29 02:59:23;;;;;;;134.05;70.82;;;;;;;7.48;100.00;101471.91;5115614;28;20023;-49
2023/04/29 03:01:49;;;;;;;141.15;71.93;;;;;;;7.48;100.00;101471.91;5116769;28;20023;-50
2023/04/29 03:04:14;;;;;;;130.73;70.90;;;;;;;7.46;100.00;101472.66;5115799;28;20019;-48
2023/04/29 03:06:39;;;;;;;132.52;69.03;;;;;;;7.45;100.00;101482.03;5116102;28;20052;-52
2023/04/29 03:09:04;;;;;;;139.85;70.70;;;;;;;7.47;100.00;101477.84;5116422;28;20447;-49
2023/04/29 03:11:30;;;;;;;135.32;71.47;;;;;;;7.47;100.00;101484.66;5115456;28;20023;-49
2023/04/29 03:13:55;;;;;;;126.18;66.32;;;;;;;7.45;100.00;101487.16;5116401;28;20038;-48
2023/04/29 03:16:20;;;;;;;129.02;68.25;;;;;;;7.46;100.00;101488.91;5116099;28;20024;-50
2023/04/29 03:18:46;;;;;;;116.20;64.43;;;;;;;7.41;100.00;101490.34;5115468;28;20016;-48
2023/04/29 03:21:11;;;;;;;116.90;64.72;;;;;;;7.44;100.00;101492.19;5116352;28;20023;-51
2023/04/29 03:23:38;;;;;;;121.38;66.85;;;;;;;7.41;100.00;101490.34;5116001;28;20030;-48
2023/04/29 03:26:04;;;;;;;122.80;63.00;;;;;;;7.40;100.00;101493.72;5115648;28;20053;-48
2023/04/29 03:28:29;;;;;;;113.43;62.38;;;;;;;7.40;100.00;101498.88;5115968;28;20023;-51
2023/04/29 03:30:55;;;;;;;114.03;62.80;;;;;;;7.40;100.00;101504.00;5116150;28;20023;-48
2023/04/29 03:33:20;;;;;;;114.68;61.50;;;;;;;7.39;100.00;101497.97;5114957;28;20028;-51
2023/04/29 03:35:46;;;;;;;111.57;61.47;;;;;;;7.40;100.00;101501.44;5116028;28;20072;-48
2023/04/29 03:38:11;;;;;;;105.85;59.50;;;;;;;7.40;100.00;101501.44;5115971;28;20502;-51
2023/04/29 03:40:37;;;;;;;115.05;60.88;;;;;;;7.41;100.00;101495.47;5115009;28;20019;-48
2023/04/29 03:43:02;;;;;;;105.85;56.47;;;;;;;7.40;100.00;101504.00;5115953;28;20050;-47
2023/04/29 03:45:28;;;;;;;102.03;57.25;;;;;;;7.41;100.00;101500.59;5115653;28;20103;-51
2023/04/29 03:47:53;;;;;;;100.63;56.03;;;;;;;7.41;100.00;101505.72;5114988;28;20047;-49
2023/04/29 03:50:19;;;;;;;107.18;56.22;;;;;;;7.40;100.00;101510.00;5115361;28;20463;-51
2023/04/29 03:52:44;;;;;;;93.60;55.03;;;;;;;7.40;100.00;101507.44;5115586;28;20028;-48
2023/04/29 03:55:10;;;;;;;93.60;54.47;;;;;;;7.43;100.00;101504.13;5114938;28;20024;-52
2023/04/29 03:57:35;;;;;;;95.32;55.70;;;;;;;7.43;100.00;101511.84;5115503;28;20034;-51
2023/04/29 04:00:01;;;;;;;103.20;56.10;;;;;;;7.47;100.00;101511.19;5115222;28;20016;-48
2023/04/29 04:02:26;;;;;;;96.43;55.35;;;;;;;7.43;100.00;101516.97;5114250;28;20106;-49
2023/04/29 04:04:53;;;;;;;93.18;54.97;;;;;;;7.44;100.00;101517.84;5115442;28;20540;-52
2023/04/29 04:07:19;;;;;;;96.22;54.65;;;;;;;7.46;100.00;101519.69;5114899;28;20092;-49
2023/04/29 04:09:44;;;;;;;93.93;55.30;;;;;;;7.44;100.00;101528.09;5114798;28;20015;-49
2023/04/29 04:12:10;;;;;;;90.68;54.80;;;;;;;7.46;100.00;101526.50;5115528;28;20023;-48
2023/04/29 04:14:35;;;;;;;94.53;56.60;;;;;;;7.45;100.00;101527.28;5114121;28;20471;-51
2023/04/29 04:17:00;;;;;;;96.32;54.55;;;;;;;7.46;100.00;101529.94;5115022;28;20072;-48
2023/04/29 04:19:27;;;;;;;91.03;55.10;;;;;;;7.49;100.00;101537.81;5114882;28;20028;-50
2023/04/29 04:21:53;;;;;;;91.80;54.65;;;;;;;7.50;100.00;101529.31;5114178;28;20412;-51
2023/04/29 04:24:19;;;;;;;94.00;56.40;;;;;;;7.49;100.00;101530.13;5114864;28;20523;-48
2023/04/29 04:26:44;;;;;;;100.25;56.45;;;;;;;7.48;100.00;101538.59;5114949;28;20544;-48
2023/04/29 04:29:09;;;;;;;96.63;54.55;;;;;;;7.51;100.00;101535.31;5114281;28;20059;-48
2023/04/29 04:31:35;;;;;;;95.93;56.00;;;;;;;7.54;100.00;101538.94;5114584;28;20035;-52
2023/04/29 04:34:01;;;;;;;90.20;52.92;;;;;;;7.53;100.00;101542.31;5114618;28;20055;-48
2023/04/29 04:36:26;;;;;;;90.43;52.42;;;;;;;7.55;100.00;101545.84;5113534;28;20027;-48
2023/04/29 04:38:51;;;;;;;85.55;51.83;;;;;;;7.55;100.00;101543.28;5114601;28;20024;-51
2023/04/29 04:41:16;;;;;;;97.45;53.78;;;;;;;7.55;100.00;101550.97;5114567;28;20019;-49
2023/04/29 04:43:42;;;;;;;85.28;52.55;;;;;;;7.60;100.00;101547.75;5113863;28;20027;-53
2023/04/29 04:46:14;;;;;;;85.95;51.78;;;;;;;7.58;100.00;101560.50;5114787;28;20463;-52
2023/04/29 04:48:40;;;;;;;78.88;49.75;;;;;;;7.58;100.00;101556.25;5114291;28;20035;-51
2023/04/29 04:51:12;;;;;;;78.90;50.78;;;;;;;7.59;100.00;101567.38;5113621;28;20032;-52
2023/04/29 04:53:39;;;;;;;78.40;48.75;;;;;;;7.60;100.00;101570.84;5113899;28;20376;-52
2023/04/29 04:56:05;;;;;;;79.15;49.53;;;;;;;7.58;100.00;101579.34;5114487;28;20023;-52
2023/04/29 04:58:31;;;;;;;77.75;47.03;;;;;;;7.57;100.00;101580.13;5113297;28;20023;-52
2023/04/29 05:00:57;;;;;;;80.95;48.47;;;;;;;7.58;100.00;101584.47;5114305;28;20015;-52
2023/04/29 05:03:22;;;;;;;69.25;45.88;;;;;;;7.62;100.00;101594.88;5114064;28;20077;-52
2023/04/29 05:05:55;;;;;;;76.85;48.70;;;;;;;7.63;100.00;101594.09;5113168;28;20051;-52
2023/04/29 05:08:21;;;;;;;76.35;46.38;;;;;;;7.65;100.00;101600.19;5113847;28;20031;-52
2023/04/29 05:10:46;;;;;;;71.78;47.05;;;;;;;7.63;100.00;101596.66;5112638;28;20146;-53
2023/04/29 05:13:11;;;;;;;70.63;48.03;;;;;;;7.63;100.00;101600.13;5113933;28;20028;-52
2023/04/29 05:15:37;;;;;;;70.63;46.00;;;;;;;7.60;100.00;101599.06;5113829;28;20024;-52
2023/04/29 05:18:02;;;;;;;69.22;46.65;;;;;;;7.62;100.00;101602.56;5113166;28;20065;-52
2023/04/29 05:20:27;;;;;;;72.93;46.22;;;;;;;7.63;100.00;101609.47;5113765;28;20031;-51
2023/04/29 05:22:53;;;;;;;71.75;47.33;;;;;;;7.62;100.00;101608.63;5113984;28;20038;-52
2023/04/29 05:25:18;;;;;;;78.47;47.97;;;;;;;7.61;100.00;101606.84;5112891;28;20433;-53
2023/04/29 05:27:43;;;;;;;71.75;47.25;;;;;;;7.61;100.00;101614.53;5113976;28;20073;-53
2023/04/29 05:30:09;;;;;;;73.25;47.10;;;;;;;7.65;100.00;101623.28;5113951;28;20530;-53
2023/04/29 05:32:34;;;;;;;74.72;48.42;;;;;;;7.68;100.00;101621.78;5113127;28;20076;-52
2023/04/29 05:35:00;;;;;;;71.18;45.90;;;;;;;7.69;100.00;101620.09;5113872;28;20035;-52
2023/04/29 05:37:29;;;;;;;68.30;45.95;;;;;;;7.69;100.00;101631.22;5113342;28;20164;-52
2023/04/29 05:39:55;;;;;;;70.97;46.90;;;;;;;7.70;100.00;101624.41;5113049;28;20478;-52
2023/04/29 05:42:20;;;;;;;65.47;45.42;;;;;;;7.68;100.00;101628.56;5113352;28;20058;-52
2023/04/29 05:44:45;;;;;;;69.03;47.70;;;;;;;7.69;100.00;101623.53;5113575;28;20028;-51
2023/04/29 05:47:11;;;;;;;71.35;46.40;;;;;;;7.70;100.00;101627.84;5112701;28;20027;-53
2023/04/29 05:49:36;;;;;;;65.78;46.08;;;;;;;7.71;100.00;101633.91;5113369;28;20019;-49
2023/04/29 05:52:05;;;;;;;67.18;45.85;;;;;;;7.74;100.00;101639.19;5113683;28;20015;-52
2023/04/29 05:54:31;;;;;;;64.88;44.08;;;;;;;7.73;100.00;101643.44;5112427;28;20030;-52
2023/04/29 05:56:56;;;;;;;65.40;45.15;;;;;;;7.76;100.00;101642.72;5113417;28;20019;-51
2023/04/29 05:59:21;;;;;;;67.30;43.38;;;;;;;7.75;100.00;101646.94;5113034;28;20024;-52
2023/04/29 06:01:46;;;;;;;64.85;44.22;;;;;;;7.78;100.00;101656.50;5112418;28;20028;-51
2023/04/29 06:04:12;;;;;;;63.13;45.53;;;;;;;7.80;100.00;101659.13;5113526;28;20113;-51
2023/04/29 06:06:37;;;;;;;66.95;43.85;;;;;;;7.80;100.00;101666.84;5112933;28;20040;-52
2023/04/29 06:09:03;;;;;;;63.53;43.97;;;;;;;7.79;100.00;101663.41;5112566;28;20098;-51
2023/04/29 06:11:29;;;;;;;62.25;43.28;;;;;;;7.81;100.00;101672.06;5112964;28;20363;-52
2023/04/29 06:13:54;;;;;;;63.42;43.53;;;;;;;7.86;100.00;101670.66;5113015;28;20035;-48
2023/04/29 06:16:20;;;;;;;63.38;43.33;;;;;;;7.84;100.00;101669.66;5111929;28;20030;-52
2023/04/29 06:18:45;;;;;;;60.83;42.47;;;;;;;7.84;100.00;101677.38;5113147;28;20034;-52
2023/04/29 06:21:10;;;;;;;60.20;43.65;;;;;;;7.82;100.00;101676.38;5112257;28;20030;-52
2023/04/29 06:23:36;;;;;;;57.47;42.22;;;;;;;7.85;100.00;101675.66;5116855;28;20023;-52
2023/04/29 06:26:01;;;;;;;60.00;42.42;;;;;;;7.89;100.00;101675.94;5117409;28;20066;-52
2023/04/29 06:28:27;;;;;;;60.00;41.35;;;;;;;7.96;100.00;101681.41;5116061;28;20122;-51
2023/04/29 06:30:52;;;;;;;60.42;42.22;;;;;;;8.05;100.00;101685.31;5117213;28;20015;-53
2023/04/29 06:33:18;;;;;;;59.85;42.45;;;;;;;8.11;100.00;101681.31;5116995;28;20030;-52
2023/04/29 06:35:43;;;;;;;56.72;41.20;;;;;;;8.10;100.00;101695.84;5116486;28;20088;-52
2023/04/29 06:38:08;;;;;;;53.97;38.95;;;;;;;8.17;100.00;101697.97;5117170;28;20019;-52
2023/04/29 06:40:34;;;;;;;53.90;37.53;;;;;;;8.24;100.00;101705.16;5116732;28;20098;-52
2023/04/29 06:43:01;;;;;;;56.42;38.83;;;;;;;8.32;100.00;101703.00;5116229;28;20546;-51
2023/04/29 06:45:27;;;;;;;48.25;36.30;;;;;;;8.39;100.00;101709.34;5116637;28;20032;-53
2023/04/29 06:47:52;;;;;;;46.60;34.47;;;;;;;8.52;100.00;101710.88;5116792;28;20051;-52
2023/04/29 06:50:17;;;;;;;48.00;33.25;;;;;;;8.60;100.00;101714.75;5115743;28;20027;-52
2023/04/29 06:52:42;;;;;;;44.42;33.65;;;;;;;8.66;100.00;101719.31;5116919;28;20485;-52
2023/04/29 06:55:08;;;;;;;42.08;33.83;;;;;;;8.75;100.00;101721.47;5116633;28;20466;-53
2023/04/29 06:57:33;;;;;;;41.03;30.45;;;;;;;8.80;100.00;101725.16;5115705;28;20028;-51
2023/04/29 06:59:58;;;;;;;40.97;29.52;;;;;;;8.86;100.00;101728.94;5116537;28;20077;-51
2023/04/29 07:02:24;;;;;;;39.40;30.05;;;;;;;8.94;100.00;101737.03;5116182;28;20039;-52
2023/04/29 07:04:49;;;;;;;38.65;29.33;;;;;;;9.03;100.00;101736.63;5115943;28;20050;-53
2023/04/29 07:07:15;;;;;;;38.13;29.13;;;;;;;9.03;100.00;101744.34;5116437;28;20044;-52
2023/04/29 07:09:40;;;;;;;40.45;29.60;;;;;;;9.13;100.00;101743.97;5116689;28;20055;-52
2023/04/29 07:12:06;;;;;;;39.47;28.90;;;;;;;9.10;100.00;101746.38;5115783;28;20032;-51
2023/04/29 07:14:31;;;;;;;35.42;27.30;;;;;;;9.19;100.00;101749.44;5116075;28;20042;-52
2023/04/29 07:16:56;;;;;;;36.45;27.92;;;;;;;9.23;100.00;101758.16;5116258;28;20015;-53
2023/04/29 07:19:21;;;;;;;37.30;26.48;;;;;;;9.22;100.00;101757.28;5115340;28;20467;-53
2023/04/29 07:21:47;;;;;;;34.50;28.13;;;;;;;9.28;100.00;101755.84;5116389;28;20068;-52
2023/04/29 07:24:12;;;;;;;38.38;27.88;;;;;;;9.29;100.00;101755.91;5116213;28;20042;-52
2023/04/29 07:26:38;;;;;;;33.22;25.95;;;;;;;9.33;100.00;101764.66;5115210;28;20039;-53
2023/04/29 07:29:03;;;;;;;34.88;27.35;;;;;;;9.47;100.00;101768.78;5116307;28;20026;-52
2023/04/29 07:31:28;;;;;;;32.42;26.13;;;;;;;9.53;100.00;101769.09;5114830;28;20388;-52
2023/04/29 07:33:54;;;;;;;32.75;24.58;;;;;;;9.62;100.00;101772.91;5115308;28;20020;-52
2023/04/29 07:36:19;;;;;;;28.65;23.60;;;;;;;9.68;100.00;101778.38;5115659;28;20046;-52
2023/04/29 07:38:44;;;;;;;32.67;24.67;;;;;;;9.85;100.00;101782.66;5115228;28;20031;-52
2023/04/29 07:41:10;;;;;;;36.13;25.83;;;;;;;10.02;100.00;101778.28;5115938;28;20070;-53
2023/04/29 07:43:35;;;;;;;30.38;24.38;;;;;;;10.10;100.00;101780.34;5115735;28;20027;-52
2023/04/29 07:46:01;;;;;;;29.88;24.08;;;;;;;10.07;100.00;101778.50;5114865;28;20024;-53
2023/04/29 07:48:26;;;;;;;32.97;24.70;;;;;;;10.31;100.00;101783.00;5115338;28;20412;-52
2023/04/29 07:50:51;;;;;;;33.25;24.27;;;;;;;10.34;100.00;101781.47;5115562;28;20115;-52
2023/04/29 07:53:17;;;;;;;30.35;23.35;;;;;;;10.35;100.00;101779.75;5114347;28;20103;-52
2023/04/29 07:55:42;;;;;;;31.55;24.27;;;;;;;10.43;100.00;101783.63;5115663;28;20095;-53
2023/04/29 07:58:07;;;;;;;30.80;23.83;;;;;;;10.45;100.00;101792.28;5115565;28;20463;-52
2023/04/29 08:00:33;;;;;;;27.25;22.58;;;;;;;10.47;100.00;101794.91;5114449;28;20030;-50
2023/04/29 08:02:58;;;;;;;29.48;23.05;;;;;;;10.49;100.00;101801.91;5115796;28;20027;-52
2023/04/29 08:05:24;;;;;;;26.13;21.80;;;;;;;10.49;100.00;101806.19;5114860;28;20052;-52
2023/04/29 08:07:50;;;;;;;28.85;21.42;;;;;;;10.40;100.00;101801.50;5114716;28;20035;-52
2023/04/29 08:10:16;;;;;;;26.60;20.70;;;;;;;10.33;100.00;101805.47;5115141;28;20058;-53
2023/04/29 08:12:44;;;;;;;24.90;20.83;;;;;;;10.33;100.00;101809.75;5115327;28;20023;-52
2023/04/29 08:15:10;;;;;;;27.17;21.40;;;;;;;10.37;100.00;101811.69;5114355;28;20027;-49
2023/04/29 08:17:35;;;;;;;26.95;20.95;;;;;;;10.51;100.00;101809.75;5115067;28;20052;-52
2023/04/29 08:20:00;;;;;;;24.33;19.92;;;;;;;10.69;100.00;101815.72;5115255;28;20097;-53
2023/04/29 08:22:26;;;;;;;29.08;20.75;;;;;;;10.89;100.00;101814.84;5114197;28;20032;-52
2023/04/29 08:24:51;;;;;;;27.05;19.58;;;;;;;11.06;100.00;101812.97;5115088;28;20028;-53
2023/04/29 08:27:17;;;;;;;24.33;19.58;;;;;;;11.12;100.00;101814.13;5114675;28;20473;-52
2023/04/29 08:29:42;;;;;;;25.10;19.63;;;;;;;11.25;100.00;101812.94;5114061;28;20032;-53
2023/04/29 08:32:07;;;;;;;25.48;19.10;;;;;;;11.45;100.00;101818.97;5115142;28;20020;-52
2023/04/29 08:34:35;;;;;;;26.30;19.00;;;;;;;11.49;100.00;101818.25;5114658;28;20038;-53
2023/04/29 08:37:00;;;;;;;25.70;18.52;;;;;;;11.79;100.00;101824.63;5114052;28;20039;-52
2023/04/29 08:39:28;;;;;;;25.35;19.85;;;;;;;12.07;100.00;101817.97;5114489;28;20024;-52
2023/04/29 08:41:56;;;;;;;23.05;18.50;;;;;;;12.21;100.00;101826.28;5113757;28;20424;-52
2023/04/29 08:44:22;;;;;;;24.88;18.98;;;;;;;12.46;99.75;101833.25;5114172;28;20015;-53
2023/04/29 08:46:48;;;;;;;24.60;18.05;;;;;;;12.71;100.00;101829.88;5113459;28;20519;-52
2023/04/29 08:49:14;;;;;;;24.70;17.15;;;;;;;12.62;98.74;101834.72;5113921;28;20020;-53
2023/04/29 08:51:39;;;;;;;23.20;17.65;;;;;;;12.48;98.08;101832.47;5114132;28;20025;-52
2023/04/29 08:54:06;;;;;;;21.83;18.38;;;;;;;12.17;98.05;101836.50;5114349;28;20031;-52
2023/04/29 08:56:31;;;;;;;24.92;19.25;;;;;;;11.93;99.13;101843.22;5113280;28;20094;-50
2023/04/29 08:58:57;;;;;;;26.35;19.58;;;;;;;11.84;100.00;101841.19;5114321;28;20114;-52
2023/04/29 09:01:27;;;;;;;25.58;19.58;;;;;;;11.77;100.00;101847.78;5114197;28;20031;-52
2023/04/29 09:04:09;;;;;;;24.40;17.55;;;;;;;11.82;100.00;101848.84;5113582;28;20029;-53
2023/04/29 09:06:34;;;;;;;22.92;18.40;;;;;;;11.78;100.00;101844.38;5113794;28;20056;-51
2023/04/29 09:09:01;;;;;;;27.63;20.35;;;;;;;12.10;100.00;101850.00;5114115;28;20116;-52
2023/04/29 09:11:28;;;;;;;23.73;18.60;;;;;;;12.23;100.00;101850.50;5112975;28;20535;-52
2023/04/29 09:14:00;;;;;;;22.92;17.52;;;;;;;12.41;99.45;101840.84;5113954;28;20470;-52
2023/04/29 09:16:27;;;;;;;25.33;19.20;;;;;;;12.87;100.00;101845.97;5113630;28;20038;-52
2023/04/29 09:18:53;;;;;;;28.30;18.85;;;;;;;13.14;97.89;101846.94;5113324;28;20027;-52
2023/04/29 09:21:27;;;;;;;19.70;15.83;;;;;;;13.20;93.46;101853.19;5113760;28;20044;-48
2023/04/29 09:24:01;;;;;;;20.55;15.02;;;;;;;13.22;94.15;101859.25;5113750;28;20745;-52
2023/04/29 09:26:33;;;;;;;19.75;15.32;;;;;;;13.62;94.80;101848.59;5113561;28;20390;-52
2023/04/29 09:29:10;;;;;;;20.35;14.93;;;;;;;13.90;93.40;101858.97;5113721;28;20024;-52
2023/04/29 09:31:39;;;;;;;23.60;15.32;;;;;;;14.12;95.28;101848.44;5112752;28;20028;-52
2023/04/29 09:34:05;;;;;;;21.17;14.18;;;;;;;14.05;90.22;101851.69;5113639;28;20027;-52
2023/04/29 09:36:46;;;;;;;18.15;14.20;;;;;;;14.24;92.70;101854.84;5113305;28;20164;-52
2023/04/29 09:39:16;;;;;;;21.40;14.82;;;;;;;14.21;90.46;101849.56;5113032;28;20027;-52
2023/04/29 09:42:01;;;;;;;17.13;12.85;;;;;;;14.20;87.45;101861.63;5113751;28;20022;-52
2023/04/29 09:44:32;;;;;;;16.88;12.60;;;;;;;14.52;84.91;101855.69;5113283;28;20043;-52
2023/04/29 09:47:05;;;;;;;20.08;12.82;;;;;;;14.21;84.29;101859.94;5112631;28;20427;-52
2023/04/29 09:49:40;;;;;;;20.90;13.40;;;;;;;13.81;87.92;101860.47;5113310;28;20099;-53
2023/04/29 09:52:09;;;;;;;18.67;13.70;;;;;;;13.75;87.36;101868.03;5112796;28;20469;-51
2023/04/29 09:54:35;;;;;;;19.27;13.35;;;;;;;13.72;85.89;101872.22;5113246;28;20126;-52
2023/04/29 09:57:04;;;;;;;19.35;14.35;;;;;;;14.73;88.85;101866.72;5112910;28;20487;-50
2023/04/29 09:59:31;;;;;;;19.73;13.18;;;;;;;15.45;80.91;101865.22;5112143;28;20036;-51
2023/04/29 10:01:57;;;;;;;20.67;13.60;;;;;;;16.29;78.62;101875.94;5113301;28;20502;-51
2023/04/29 10:04:26;;;;;;;17.45;12.85;;;;;;;16.08;77.95;101876.28;5113220;28;20023;-52
2023/04/29 10:06:54;;;;;;;18.48;11.30;;;;;;;15.08;70.82;101881.50;5112288;28;20372;-48
2023/04/29 10:09:21;;;;;;;13.32;11.25;;;;;;;14.36;75.42;101878.56;5112999;28;20024;-53
2023/04/29 10:11:49;;;;;;;15.30;11.55;;;;;;;14.85;77.15;101878.28;5113406;28;20032;-53
2023/04/29 10:14:19;;;;;;;16.15;11.93;;;;;;;15.60;72.80;101877.72;5112543;28;20031;-52
2023/04/29 10:16:47;;;;;;;17.13;11.70;;;;;;;15.56;74.63;101885.41;5113321;28;20459;-51
2023/04/29 10:19:26;;;;;;;17.27;11.90;;;;;;;15.50;77.59;101888.69;5113286;28;20035;-51
2023/04/29 10:21:55;;;;;;;16.35;11.95;;;;;;;15.04;75.77;101885.78;5112590;28;20023;-53
2023/04/29 10:24:21;;;;;;;16.58;12.13;;;;;;;14.72;75.31;101887.41;5112626;28;20523;-51
2023/04/29 10:26:49;;;;;;;15.70;12.10;;;;;;;14.60;76.03;101891.41;5112993;28;20344;-52
2023/04/29 10:29:16;;;;;;;14.90;12.05;;;;;;;14.34;77.16;101890.59;5112543;28;20020;-53
2023/04/29 10:31:42;;;;;;;15.75;11.27;;;;;;;14.05;77.09;101892.31;5112992;28;20498;-53
2023/04/29 10:34:07;;;;;;;15.48;11.95;;;;;;;13.85;78.53;101892.50;5113043;28;20053;-52
2023/04/29 10:36:34;;;;;;;17.92;12.68;;;;;;;13.70;78.48;101889.41;5111910;28;20401;-52
2023/04/29 10:39:02;;;;;;;16.52;12.60;;;;;;;13.76;82.10;101895.69;5112853;28;20024;-52
2023/04/29 10:41:36;;;;;;;17.95;12.65;;;;;;;14.07;80.88;101896.69;5111990;28;20028;-50
2023/04/29 10:44:03;;;;;;;14.38;10.98;;;;;;;14.32;79.93;101897.47;5113087;28;20054;-52
2023/04/29 10:46:28;;;;;;;15.65;11.68;;;;;;;14.81;78.45;101892.91;5112636;28;20016;-52
2023/04/29 10:49:02;;;;;;;14.15;10.85;;;;;;;14.85;76.35;101893.84;5112096;28;20093;-52
2023/04/29 10:51:44;;;;;;;18.67;12.13;;;;;;;14.72;78.22;101897.78;5112588;28;20024;-52
2023/04/29 10:54:12;;;;;;;14.45;11.27;;;;;;;14.60;75.04;101900.88;5112983;28;20176;-52
2023/04/29 10:56:38;;;;;;;15.32;10.82;;;;;;;14.58;75.11;101899.97;5111711;28;20376;-52
2023/04/29 10:59:04;;;;;;;13.57;10.27;;;;;;;14.41;74.10;101902.03;5112890;28;20090;-52
2023/04/29 11:01:47;;;;;;;15.57;10.30;;;;;;;14.61;77.86;101900.06;5112535;28;20490;-52
2023/04/29 11:04:13;;;;;;;18.85;11.98;;;;;;;14.36;75.23;101899.31;5111945;28;20542;-51
2023/04/29 11:06:42;;;;;;;14.57;10.27;;;;;;;14.24;76.25;101904.09;5112329;28;20032;-53